TimeEDT,TemperatureF,Dew PointF,Humidity,Sea Level PressureIn,VisibilityMPH,Wind Direction,Wind SpeedMPH,Gust SpeedMPH,PrecipitationIn,Events,Conditions,WindDirDegrees,DateUTC
12:53 AM,59.0,53.1,81,30.16,10.0,North,3.5,-,N/A,,Clear,360,2013-08-24 04:53:00
1:53 AM,57.0,53.1,87,30.17,10.0,Calm,Calm,-,N/A,,Clear,0,2013-08-24 05:53:00
2:53 AM,55.0,52.0,89,30.18,10.0,Calm,Calm,-,N/A,,Clear,0,2013-08-24 06:53:00
3:53 AM,53.1,52.0,96,30.20,10.0,Calm,Calm,-,N/A,,Clear,0,2013-08-24 07:53:00
4:53 AM,53.1,50.0,89,30.22,10.0,Calm,Calm,-,N/A,,Clear,0,2013-08-24 08:53:00
5:53 AM,53.1,50.0,89,30.24,10.0,Calm,Calm,-,N/A,,Clear,0,2013-08-24 09:53:00
6:53 AM,54.0,50.0,86,30.26,10.0,Calm,Calm,-,N/A,,Clear,0,2013-08-24 10:53:00
7:53 AM,59.0,52.0,78,30.28,10.0,North,3.5,-,N/A,,Clear,360,2013-08-24 11:53:00
8:53 AM,63.0,53.1,70,30.30,10.0,NNE,9.2,-,N/A,,Clear,20,2013-08-24 12:53:00
9:53 AM,68.0,53.1,59,30.30,10.0,North,6.9,-,N/A,,Clear,10,2013-08-24 13:53:00
10:53 AM,72.0,53.1,51,30.30,10.0,Variable,4.6,-,N/A,,Clear,0,2013-08-24 14:53:00
11:53 AM,73.0,50.0,44,30.30,10.0,North,5.8,-,N/A,,Clear,10,2013-08-24 15:53:00
12:53 PM,73.9,50.0,43,30.29,10.0,Variable,3.5,-,N/A,,Clear,0,2013-08-24 16:53:00
1:53 PM,75.0,51.1,43,30.29,10.0,North,5.8,-,N/A,,Clear,10,2013-08-24 17:53:00
2:53 PM,75.9,52.0,43,30.28,10.0,Variable,4.6,-,N/A,,Clear,0,2013-08-24 18:53:00
3:53 PM,78.1,52.0,40,30.27,10.0,North,3.5,-,N/A,,Clear,350,2013-08-24 19:53:00
4:53 PM,75.9,51.1,42,30.27,10.0,Calm,Calm,-,N/A,,Clear,0,2013-08-24 20:53:00
5:53 PM,78.1,51.1,39,30.27,10.0,Calm,Calm,-,N/A,,Clear,0,2013-08-24 21:53:00
6:53 PM,73.0,59.0,61,30.27,10.0,Calm,Calm,-,N/A,,Clear,0,2013-08-24 22:53:00
7:53 PM,64.9,57.9,78,30.29,10.0,Calm,Calm,-,N/A,,Clear,0,2013-08-24 23:53:00
8:53 PM,61.0,57.9,90,30.31,10.0,Calm,Calm,-,N/A,,Clear,0,2013-08-25 00:53:00
9:53 PM,59.0,55.9,90,30.32,10.0,Calm,Calm,-,N/A,,Clear,0,2013-08-25 01:53:00
10:53 PM,57.9,55.9,93,30.33,10.0,Calm,Calm,-,N/A,,Clear,0,2013-08-25 02:53:00
11:53 PM,55.9,54.0,93,30.34,10.0,Calm,Calm,-,N/A,,Clear,0,2013-08-25 03:53:00